sensor_id;sensor_type;location;lat;lon;timestamp;P1;durP1;ratioP1;P2;durP2;ratioP2
10442;SDS011;5269;51.146;16.986;2023-02-04T11:44:36;2.40;;;1.53;;
10442;SDS011;5269;51.146;16.986;2023-02-04T11:47:05;3.23;;;2.23;;
10442;SDS011;5269;51.146;16.986;2023-02-04T11:49:34;1.83;;;1.40;;
10442;SDS011;5269;51.146;16.986;2023-02-04T11:52:03;1.30;;;1.20;;
10442;SDS011;5269;51.146;16.986;2023-02-04T11:54:33;2.03;;;1.60;;
10442;SDS011;5269;51.146;16.986;2023-02-04T11:57:01;4.20;;;2.00;;
10442;SDS011;5269;51.146;16.986;2023-02-04T11:59:28;2.73;;;1.90;;
10442;SDS011;5269;51.146;16.986;2023-02-04T12:02:12;2.53;;;1.90;;
10442;SDS011;5269;51.146;16.986;2023-02-04T12:04:49;3.00;;;1.80;;
10442;SDS011;5269;51.146;16.986;2023-02-04T12:07:20;1.93;;;1.40;;
10442;SDS011;5269;51.146;16.986;2023-02-04T12:09:51;2.90;;;1.50;;
10442;SDS011;5269;51.146;16.986;2023-02-04T12:39:05;2.50;;;1.90;;
10442;SDS011;5269;51.146;16.986;2023-02-04T12:41:31;2.53;;;2.03;;
10442;SDS011;5269;51.146;16.986;2023-02-04T12:43:58;1.92;;;1.50;;
10442;SDS011;5269;51.146;16.986;2023-02-04T12:46:26;3.30;;;1.80;;
10442;SDS011;5269;51.146;16.986;2023-02-04T12:48:53;2.03;;;1.80;;
10442;SDS011;5269;51.146;16.986;2023-02-04T12:51:20;1.63;;;1.47;;
10442;SDS011;5269;51.146;16.986;2023-02-04T12:53:48;2.97;;;1.60;;
10442;SDS011;5269;51.146;16.986;2023-02-04T12:56:16;1.57;;;1.33;;
10442;SDS011;5269;51.146;16.986;2023-02-04T12:58:44;3.07;;;1.50;;
10442;SDS011;5269;51.146;16.986;2023-02-04T13:01:11;3.43;;;1.40;;
10442;SDS011;5269;51.146;16.986;2023-02-04T13:03:38;2.17;;;1.30;;
10442;SDS011;5269;51.146;16.986;2023-02-04T13:06:05;1.23;;;1.17;;
10442;SDS011;5269;51.146;16.986;2023-02-04T13:08:32;1.37;;;1.27;;
10442;SDS011;5269;51.146;16.986;2023-02-04T13:10:58;1.10;;;1.10;;
10442;SDS011;5269;51.146;16.986;2023-02-04T13:13:27;1.43;;;1.33;;
10442;SDS011;5269;51.146;16.986;2023-02-04T13:15:53;1.67;;;1.40;;
10442;SDS011;5269;51.146;16.986;2023-02-04T13:18:20;1.43;;;1.33;;
10442;SDS011;5269;51.146;16.986;2023-02-04T13:20:48;1.50;;;1.27;;
10442;SDS011;5269;51.146;16.986;2023-02-04T13:23:14;2.20;;;1.50;;
10442;SDS011;5269;51.146;16.986;2023-02-04T13:25:41;2.17;;;1.57;;
10442;SDS011;5269;51.146;16.986;2023-02-04T13:28:09;4.60;;;1.60;;
10442;SDS011;5269;51.146;16.986;2023-02-04T13:30:37;2.53;;;1.50;;
10442;SDS011;5269;51.146;16.986;2023-02-04T13:33:04;1.60;;;1.50;;
10442;SDS011;5269;51.146;16.986;2023-02-04T13:35:31;2.13;;;1.57;;
10442;SDS011;5269;51.146;16.986;2023-02-04T13:37:58;2.33;;;1.50;;
10442;SDS011;5269;51.146;16.986;2023-02-04T13:40:25;1.73;;;1.40;;
10442;SDS011;5269;51.146;16.986;2023-02-04T13:42:52;1.20;;;1.10;;
10442;SDS011;5269;51.146;16.986;2023-02-04T13:45:19;1.70;;;1.40;;
10442;SDS011;5269;51.146;16.986;2023-02-04T13:47:47;1.80;;;1.50;;
10442;SDS011;5269;51.146;16.986;2023-02-04T13:50:16;1.53;;;1.40;;
10442;SDS011;5269;51.146;16.986;2023-02-04T13:52:43;1.70;;;1.60;;
10442;SDS011;5269;51.146;16.986;2023-02-04T13:55:10;2.70;;;1.60;;
10442;SDS011;5269;51.146;16.986;2023-02-04T13:57:37;2.63;;;1.70;;
10442;SDS011;5269;51.146;16.986;2023-02-04T14:00:05;2.10;;;1.63;;
10442;SDS011;5269;51.146;16.986;2023-02-04T14:02:33;1.93;;;1.43;;
10442;SDS011;5269;51.146;16.986;2023-02-04T14:05:02;2.93;;;1.83;;
10442;SDS011;5269;51.146;16.986;2023-02-04T14:07:29;2.30;;;1.50;;
10442;SDS011;5269;51.146;16.986;2023-02-04T14:09:57;7.33;;;3.60;;
10442;SDS011;5269;51.146;16.986;2023-02-04T14:12:24;3.07;;;1.77;;
10442;SDS011;5269;51.146;16.986;2023-02-04T14:14:51;2.93;;;2.10;;
10442;SDS011;5269;51.146;16.986;2023-02-04T14:17:18;2.10;;;1.80;;
10442;SDS011;5269;51.146;16.986;2023-02-04T14:19:45;2.20;;;1.97;;
10442;SDS011;5269;51.146;16.986;2023-02-04T14:22:14;3.93;;;2.10;;
10442;SDS011;5269;51.146;16.986;2023-02-04T14:24:41;5.43;;;2.25;;
10442;SDS011;5269;51.146;16.986;2023-02-04T14:27:09;2.93;;;1.90;;
10442;SDS011;5269;51.146;16.986;2023-02-04T14:29:36;3.10;;;2.00;;
10442;SDS011;5269;51.146;16.986;2023-02-04T14:32:03;3.17;;;2.60;;
10442;SDS011;5269;51.146;16.986;2023-02-04T14:34:30;2.50;;;2.17;;
10442;SDS011;5269;51.146;16.986;2023-02-04T14:36:57;2.13;;;1.83;;
10442;SDS011;5269;51.146;16.986;2023-02-04T14:39:25;1.80;;;1.70;;
10442;SDS011;5269;51.146;16.986;2023-02-04T14:41:52;2.53;;;1.70;;
10442;SDS011;5269;51.146;16.986;2023-02-04T14:44:19;3.27;;;2.20;;
10442;SDS011;5269;51.146;16.986;2023-02-04T14:46:46;1.73;;;1.40;;
10442;SDS011;5269;51.146;16.986;2023-02-04T14:49:14;4.70;;;2.50;;
10442;SDS011;5269;51.146;16.986;2023-02-04T14:51:41;4.97;;;3.00;;
10442;SDS011;5269;51.146;16.986;2023-02-04T14:54:08;4.47;;;2.73;;
10442;SDS011;5269;51.146;16.986;2023-02-04T14:56:37;5.33;;;2.57;;
10442;SDS011;5269;51.146;16.986;2023-02-04T14:59:04;4.23;;;2.17;;
10442;SDS011;5269;51.146;16.986;2023-02-04T15:01:31;2.00;;;1.57;;
10442;SDS011;5269;51.146;16.986;2023-02-04T15:03:58;3.67;;;2.10;;
10442;SDS011;5269;51.146;16.986;2023-02-04T15:06:25;2.53;;;1.73;;
10442;SDS011;5269;51.146;16.986;2023-02-04T15:08:52;4.70;;;1.73;;
10442;SDS011;5269;51.146;16.986;2023-02-04T15:11:21;3.43;;;1.77;;
10442;SDS011;5269;51.146;16.986;2023-02-04T15:13:49;2.00;;;1.80;;
10442;SDS011;5269;51.146;16.986;2023-02-04T15:16:16;3.83;;;2.00;;
10442;SDS011;5269;51.146;16.986;2023-02-04T15:18:44;2.00;;;1.80;;
10442;SDS011;5269;51.146;16.986;2023-02-04T15:21:11;1.83;;;1.70;;
10442;SDS011;5269;51.146;16.986;2023-02-04T15:23:38;3.17;;;1.83;;
10442;SDS011;5269;51.146;16.986;2023-02-04T15:26:09;3.53;;;2.23;;
10442;SDS011;5269;51.146;16.986;2023-02-04T15:28:36;3.03;;;1.73;;
10442;SDS011;5269;51.146;16.986;2023-02-04T15:31:04;2.07;;;1.60;;
10442;SDS011;5269;51.146;16.986;2023-02-04T15:33:34;2.17;;;1.60;;
10442;SDS011;5269;51.146;16.986;2023-02-04T15:36:01;4.17;;;1.80;;
10442;SDS011;5269;51.146;16.986;2023-02-04T15:38:28;2.60;;;1.90;;
10442;SDS011;5269;51.146;16.986;2023-02-04T15:40:55;3.03;;;2.07;;
10442;SDS011;5269;51.146;16.986;2023-02-04T15:43:25;1.00;;;0.93;;
10442;SDS011;5269;51.146;16.986;2023-02-04T15:45:52;1.33;;;0.97;;
10442;SDS011;5269;51.146;16.986;2023-02-04T15:50:50;3.40;;;1.83;;
10442;SDS011;5269;51.146;16.986;2023-02-04T15:53:17;4.27;;;1.47;;
10442;SDS011;5269;51.146;16.986;2023-02-04T15:55:44;3.63;;;1.40;;
10442;SDS011;5269;51.146;16.986;2023-02-04T15:58:11;2.63;;;1.20;;
10442;SDS011;5269;51.146;16.986;2023-02-04T16:00:39;1.83;;;1.23;;
10442;SDS011;5269;51.146;16.986;2023-02-04T16:03:06;3.43;;;1.50;;
10442;SDS011;5269;51.146;16.986;2023-02-04T16:05:36;1.43;;;1.20;;
10442;SDS011;5269;51.146;16.986;2023-02-04T16:08:05;1.87;;;1.60;;
10442;SDS011;5269;51.146;16.986;2023-02-04T16:10:32;2.43;;;1.30;;
10442;SDS011;5269;51.146;16.986;2023-02-04T16:12:59;1.47;;;1.37;;
10442;SDS011;5269;51.146;16.986;2023-02-04T16:15:36;1.43;;;1.30;;
10442;SDS011;5269;51.146;16.986;2023-02-04T16:18:08;1.97;;;1.30;;
10442;SDS011;5269;51.146;16.986;2023-02-04T16:20:36;3.07;;;1.50;;
10442;SDS011;5269;51.146;16.986;2023-02-04T16:23:13;2.13;;;1.80;;
10442;SDS011;5269;51.146;16.986;2023-02-04T16:25:41;2.40;;;1.70;;
10442;SDS011;5269;51.146;16.986;2023-02-04T16:28:18;2.70;;;1.77;;
10442;SDS011;5269;51.146;16.986;2023-02-04T16:30:51;1.60;;;1.27;;
10442;SDS011;5269;51.146;16.986;2023-02-04T16:33:20;4.13;;;1.60;;
10442;SDS011;5269;51.146;16.986;2023-02-04T16:35:59;3.17;;;1.40;;
10442;SDS011;5269;51.146;16.986;2023-02-04T16:38:36;2.30;;;1.43;;
10442;SDS011;5269;51.146;16.986;2023-02-04T16:41:05;2.00;;;1.50;;
10442;SDS011;5269;51.146;16.986;2023-02-04T16:43:32;2.23;;;1.83;;
10442;SDS011;5269;51.146;16.986;2023-02-04T16:46:00;2.30;;;1.67;;
10442;SDS011;5269;51.146;16.986;2023-02-04T16:48:27;1.83;;;1.67;;
10442;SDS011;5269;51.146;16.986;2023-02-04T16:50:55;2.00;;;1.77;;
10442;SDS011;5269;51.146;16.986;2023-02-04T16:53:22;2.30;;;1.67;;
10442;SDS011;5269;51.146;16.986;2023-02-04T16:55:51;2.77;;;1.90;;
10442;SDS011;5269;51.146;16.986;2023-02-04T16:58:19;3.60;;;1.30;;
10442;SDS011;5269;51.146;16.986;2023-02-04T17:00:47;3.37;;;2.20;;
10442;SDS011;5269;51.146;16.986;2023-02-04T17:03:17;2.47;;;1.57;;
10442;SDS011;5269;51.146;16.986;2023-02-04T17:05:44;3.40;;;1.80;;
10442;SDS011;5269;51.146;16.986;2023-02-04T17:08:11;2.60;;;1.90;;
10442;SDS011;5269;51.146;16.986;2023-02-04T17:16:11;11.33;;;7.03;;
10442;SDS011;5269;51.146;16.986;2023-02-04T17:18:43;12.87;;;8.43;;
10442;SDS011;5269;51.146;16.986;2023-02-04T17:21:20;3.63;;;2.73;;
10442;SDS011;5269;51.146;16.986;2023-02-04T17:23:56;6.23;;;5.30;;
10442;SDS011;5269;51.146;16.986;2023-02-04T17:26:32;3.87;;;2.93;;
10442;SDS011;5269;51.146;16.986;2023-02-04T17:29:02;3.77;;;2.50;;
10442;SDS011;5269;51.146;16.986;2023-02-04T17:31:31;3.33;;;2.47;;
10442;SDS011;5269;51.146;16.986;2023-02-04T17:34:06;2.50;;;2.10;;
10442;SDS011;5269;51.146;16.986;2023-02-04T17:36:40;3.63;;;2.00;;
10442;SDS011;5269;51.146;16.986;2023-02-04T17:39:19;3.20;;;2.30;;
10442;SDS011;5269;51.146;16.986;2023-02-04T17:41:45;3.60;;;2.77;;
10442;SDS011;5269;51.146;16.986;2023-02-04T17:44:13;4.63;;;2.47;;
10442;SDS011;5269;51.146;16.986;2023-02-04T17:46:45;4.13;;;2.80;;
10442;SDS011;5269;51.146;16.986;2023-02-04T17:49:21;1.77;;;1.43;;
10442;SDS011;5269;51.146;16.986;2023-02-04T17:51:55;4.90;;;2.30;;
10442;SDS011;5269;51.146;16.986;2023-02-04T17:54:24;4.43;;;2.80;;
10442;SDS011;5269;51.146;16.986;2023-02-04T17:56:54;1.70;;;1.50;;
10442;SDS011;5269;51.146;16.986;2023-02-04T17:59:24;3.60;;;2.03;;
10442;SDS011;5269;51.146;16.986;2023-02-04T18:01:53;2.20;;;1.73;;
10442;SDS011;5269;51.146;16.986;2023-02-04T18:04:20;3.00;;;2.40;;
10442;SDS011;5269;51.146;16.986;2023-02-04T18:06:47;2.97;;;2.10;;
10442;SDS011;5269;51.146;16.986;2023-02-04T18:09:16;3.17;;;2.10;;
10442;SDS011;5269;51.146;16.986;2023-02-04T18:11:46;5.00;;;2.37;;
10442;SDS011;5269;51.146;16.986;2023-02-04T18:14:14;3.20;;;2.40;;
10442;SDS011;5269;51.146;16.986;2023-02-04T18:16:42;4.70;;;2.27;;
10442;SDS011;5269;51.146;16.986;2023-02-04T18:19:16;3.90;;;2.30;;
10442;SDS011;5269;51.146;16.986;2023-02-04T18:21:45;3.17;;;2.03;;
10442;SDS011;5269;51.146;16.986;2023-02-04T18:24:14;4.10;;;2.00;;
10442;SDS011;5269;51.146;16.986;2023-02-04T18:26:43;3.43;;;2.07;;
10442;SDS011;5269;51.146;16.986;2023-02-04T18:29:16;3.20;;;1.97;;
10442;SDS011;5269;51.146;16.986;2023-02-04T18:31:52;1.90;;;1.27;;
10442;SDS011;5269;51.146;16.986;2023-02-04T18:34:25;3.20;;;1.77;;
10442;SDS011;5269;51.146;16.986;2023-02-04T18:36:54;2.77;;;1.80;;
10442;SDS011;5269;51.146;16.986;2023-02-04T18:39:23;3.83;;;2.13;;
10442;SDS011;5269;51.146;16.986;2023-02-04T18:41:53;3.63;;;2.20;;
10442;SDS011;5269;51.146;16.986;2023-02-04T18:44:23;3.30;;;2.20;;
10442;SDS011;5269;51.146;16.986;2023-02-04T18:46:54;2.60;;;1.70;;
10442;SDS011;5269;51.146;16.986;2023-02-04T18:49:25;3.47;;;2.67;;
10442;SDS011;5269;51.146;16.986;2023-02-04T18:55:13;4.50;;;2.10;;
10442;SDS011;5269;51.146;16.986;2023-02-04T18:57:48;3.20;;;2.37;;
10442;SDS011;5269;51.146;16.986;2023-02-04T19:00:22;3.23;;;1.93;;
10442;SDS011;5269;51.146;16.986;2023-02-04T19:02:52;2.50;;;1.53;;
10442;SDS011;5269;51.146;16.986;2023-02-04T19:05:27;4.00;;;2.13;;
10442;SDS011;5269;51.146;16.986;2023-02-04T19:08:09;2.27;;;1.73;;
10442;SDS011;5269;51.146;16.986;2023-02-04T19:10:47;5.67;;;2.30;;
10442;SDS011;5269;51.146;16.986;2023-02-04T19:13:17;3.60;;;1.95;;
10442;SDS011;5269;51.146;16.986;2023-02-04T19:15:53;1.63;;;1.30;;
10442;SDS011;5269;51.146;16.986;2023-02-04T19:18:26;3.77;;;1.93;;
10442;SDS011;5269;51.146;16.986;2023-02-04T19:20:59;2.43;;;1.73;;
10442;SDS011;5269;51.146;16.986;2023-02-04T19:23:34;3.10;;;1.43;;
10442;SDS011;5269;51.146;16.986;2023-02-04T19:26:21;3.83;;;2.30;;
10442;SDS011;5269;51.146;16.986;2023-02-04T19:46:16;2.47;;;1.70;;
10442;SDS011;5269;51.146;16.986;2023-02-04T19:48:48;3.40;;;2.37;;
10442;SDS011;5269;51.146;16.986;2023-02-04T19:51:23;7.70;;;2.47;;
10442;SDS011;5269;51.146;16.986;2023-02-04T19:53:54;3.53;;;2.40;;
10442;SDS011;5269;51.146;16.986;2023-02-04T19:56:27;4.43;;;2.40;;
10442;SDS011;5269;51.146;16.986;2023-02-04T19:58:58;3.33;;;2.00;;
10442;SDS011;5269;51.146;16.986;2023-02-04T20:01:44;3.50;;;2.57;;
10442;SDS011;5269;51.146;16.986;2023-02-04T20:04:11;2.73;;;1.80;;
10442;SDS011;5269;51.146;16.986;2023-02-04T20:06:43;3.13;;;2.07;;
10442;SDS011;5269;51.146;16.986;2023-02-04T20:09:13;2.60;;;2.00;;
10442;SDS011;5269;51.146;16.986;2023-02-04T20:11:48;3.77;;;2.37;;
10442;SDS011;5269;51.146;16.986;2023-02-04T20:14:39;2.80;;;1.90;;
10442;SDS011;5269;51.146;16.986;2023-02-04T20:22:55;3.47;;;2.30;;
10442;SDS011;5269;51.146;16.986;2023-02-04T20:25:33;4.07;;;2.47;;
10442;SDS011;5269;51.146;16.986;2023-02-04T20:28:17;4.33;;;2.63;;
10442;SDS011;5269;51.146;16.986;2023-02-04T20:31:00;3.83;;;2.43;;
10442;SDS011;5269;51.146;16.986;2023-02-04T20:33:32;4.43;;;2.63;;
10442;SDS011;5269;51.146;16.986;2023-02-04T20:38:57;4.53;;;2.90;;
10442;SDS011;5269;51.146;16.986;2023-02-04T20:41:33;4.73;;;3.40;;
10442;SDS011;5269;51.146;16.986;2023-02-04T20:44:07;2.20;;;2.00;;
10442;SDS011;5269;51.146;16.986;2023-02-04T20:46:37;4.43;;;2.33;;
10442;SDS011;5269;51.146;16.986;2023-02-04T20:49:16;4.93;;;2.53;;
10442;SDS011;5269;51.146;16.986;2023-02-04T20:51:47;5.23;;;2.53;;
10442;SDS011;5269;51.146;16.986;2023-02-04T20:54:15;4.33;;;2.80;;
10442;SDS011;5269;51.146;16.986;2023-02-04T20:56:43;9.77;;;4.47;;
10442;SDS011;5269;51.146;16.986;2023-02-04T20:59:26;8.93;;;4.27;;
10442;SDS011;5269;51.146;16.986;2023-02-04T21:01:57;11.67;;;6.47;;
10442;SDS011;5269;51.146;16.986;2023-02-04T21:04:30;8.63;;;5.33;;
10442;SDS011;5269;51.146;16.986;2023-02-04T21:07:06;7.03;;;4.17;;
10442;SDS011;5269;51.146;16.986;2023-02-04T21:09:40;6.83;;;4.13;;
10442;SDS011;5269;51.146;16.986;2023-02-04T21:12:07;6.17;;;3.20;;
10442;SDS011;5269;51.146;16.986;2023-02-04T21:14:35;4.50;;;2.90;;
10442;SDS011;5269;51.146;16.986;2023-02-04T21:17:02;5.70;;;2.90;;
10442;SDS011;5269;51.146;16.986;2023-02-04T21:19:31;5.20;;;2.83;;
10442;SDS011;5269;51.146;16.986;2023-02-04T21:21:59;5.90;;;2.60;;
10442;SDS011;5269;51.146;16.986;2023-02-04T21:24:26;4.77;;;3.00;;
10442;SDS011;5269;51.146;16.986;2023-02-04T21:26:55;5.17;;;3.00;;
10442;SDS011;5269;51.146;16.986;2023-02-04T21:29:25;3.63;;;2.60;;
10442;SDS011;5269;51.146;16.986;2023-02-04T21:31:52;6.33;;;3.10;;
10442;SDS011;5269;51.146;16.986;2023-02-04T21:34:19;7.63;;;4.23;;
10442;SDS011;5269;51.146;16.986;2023-02-04T21:39:36;3.00;;;2.23;;
10442;SDS011;5269;51.146;16.986;2023-02-04T21:42:05;4.53;;;2.70;;
10442;SDS011;5269;51.146;16.986;2023-02-04T21:44:35;7.60;;;2.70;;
10442;SDS011;5269;51.146;16.986;2023-02-04T21:47:02;4.00;;;2.80;;
10442;SDS011;5269;51.146;16.986;2023-02-04T21:49:29;4.10;;;2.37;;
10442;SDS011;5269;51.146;16.986;2023-02-04T21:51:56;4.70;;;2.97;;
10442;SDS011;5269;51.146;16.986;2023-02-04T22:25:17;4.20;;;3.00;;
10442;SDS011;5269;51.146;16.986;2023-02-04T22:27:46;4.60;;;2.50;;
10442;SDS011;5269;51.146;16.986;2023-02-04T22:30:14;4.67;;;2.70;;
10442;SDS011;5269;51.146;16.986;2023-02-04T22:32:42;5.40;;;2.63;;
10442;SDS011;5269;51.146;16.986;2023-02-04T22:35:09;4.53;;;2.70;;
10442;SDS011;5269;51.146;16.986;2023-02-04T22:37:37;4.60;;;2.50;;
10442;SDS011;5269;51.146;16.986;2023-02-04T22:40:06;3.50;;;2.50;;
10442;SDS011;5269;51.146;16.986;2023-02-04T22:42:35;3.10;;;2.20;;
10442;SDS011;5269;51.146;16.986;2023-02-04T22:45:02;2.97;;;2.30;;
10442;SDS011;5269;51.146;16.986;2023-02-04T22:47:29;2.70;;;2.07;;
10442;SDS011;5269;51.146;16.986;2023-02-04T22:49:56;3.63;;;2.07;;
10442;SDS011;5269;51.146;16.986;2023-02-04T22:58:57;3.60;;;2.43;;
10442;SDS011;5269;51.146;16.986;2023-02-04T23:08:29;4.93;;;2.50;;
10442;SDS011;5269;51.146;16.986;2023-02-04T23:20:53;3.33;;;2.17;;
10442;SDS011;5269;51.146;16.986;2023-02-04T23:23:20;4.20;;;2.50;;
10442;SDS011;5269;51.146;16.986;2023-02-04T23:25:48;4.40;;;2.37;;
10442;SDS011;5269;51.146;16.986;2023-02-04T23:31:37;3.87;;;2.57;;
10442;SDS011;5269;51.146;16.986;2023-02-04T23:34:04;3.17;;;2.10;;
10442;SDS011;5269;51.146;16.986;2023-02-04T23:36:33;3.37;;;2.37;;
10442;SDS011;5269;51.146;16.986;2023-02-04T23:39:00;6.13;;;2.80;;
10442;SDS011;5269;51.146;16.986;2023-02-04T23:41:27;4.70;;;3.10;;
10442;SDS011;5269;51.146;16.986;2023-02-04T23:43:54;4.63;;;2.33;;
10442;SDS011;5269;51.146;16.986;2023-02-04T23:46:21;4.70;;;2.63;;
10442;SDS011;5269;51.146;16.986;2023-02-04T23:48:48;5.53;;;2.77;;
10442;SDS011;5269;51.146;16.986;2023-02-04T23:51:15;5.73;;;3.57;;
10442;SDS011;5269;51.146;16.986;2023-02-04T23:53:44;5.80;;;3.00;;
10442;SDS011;5269;51.146;16.986;2023-02-04T23:56:10;3.77;;;2.50;;
10442;SDS011;5269;51.146;16.986;2023-02-04T23:58:37;3.57;;;2.63;;
